Kaszuby — C6XD6 — position and weather

sailwx.info

Track history (hours):
 
Tides and Currents Weather Stations Pressure Air Temp Water Temp Dewpoint Dewpoint Depression Visibility Wind Speed Wind Dir Waves Ship Positions

Kaszuby

Last reported at 2016-Feb-10 15:31 UTC. Time now 2016-Feb-13 23:39 UTC.
Position N 41°57' W 009°48'.

Length 190 m; draft 10.1 m.

Type: Cargo ship. MMSI: 311005600.

Date/timePositionNaut miles runAvg speedWind from/ knotsBaromVisibWave heightAir tempDewpointWater temp
2016-Feb-10 15:31N 41°57' W 009°48'10 9.9
2016-Feb-10 14:31N 41°48' W 009°47'10 9.9
2016-Feb-10 13:31N 41°38' W 009°48'10 9.3
2016-Feb-10 12:28N 41°28' W 009°49'10 9.8
2016-Feb-10 11:28N 41°18' W 009°49'11 9.0
2016-Feb-10 10:13N 41°07' W 009°49'8 9.8
2016-Feb-10 09:25N 40°59' W 009°49'9 9.9
2016-Feb-10 08:31N 40°50' W 009°49'10 9.8
2016-Feb-10 07:28N 40°40' W 009°50'1010.0
2016-Feb-10 06:28N 40°30' W 009°50'9 9.4
2016-Feb-10 05:31N 40°21' W 009°50'1010.3
2016-Feb-10 04:31N 40°11' W 009°50'10 9.4
2016-Feb-10 03:29N 40°01' W 009°50'1111.1
2016-Feb-10 02:31N 39°50' W 009°51'10 9.4
2016-Feb-10 01:28N 39°40' W 009°50'8 9.1
2016-Feb-10 00:32N 39°32' W 009°50'9 9.4
2016-Feb-09 23:33N 39°23' W 009°50'9 9.4
2016-Feb-09 22:33N 39°13' W 009°50'9 9.2
2016-Feb-09 21:34N 39°04' W 009°50'9 9.0
2016-Feb-09 20:34N 38°55' W 009°50'9 9.2
2016-Feb-09 19:33N 38°46' W 009°50'9 9.5
2016-Feb-09 18:33N 38°36' W 009°50'1010.2
2016-Feb-09 17:33N 38°26' W 009°47'1110.7
2016-Feb-09 16:33N 38°16' W 009°44'1111.0
2016-Feb-09 15:33N 38°05' W 009°41'1111.0
2016-Feb-09 14:33N 37°55' W 009°37'1211.9
2016-Feb-09 13:31N 37°43' W 009°33'1110.6
2016-Feb-09 12:28N 37°32' W 009°31'1010.3
2016-Feb-09 11:31N 37°22' W 009°28'1110.8
2016-Feb-09 10:31N 37°12' W 009°25'1010.1
2016-Feb-09 09:34N 37°02' W 009°21'1211.2
2016-Feb-09 08:28N 36°51' W 009°16'1010.4
2016-Feb-09 07:31N 36°43' W 009°08'1211.9
2016-Feb-09 06:31N 36°40' W 008°54'1111.6
2016-Feb-09 05:34N 36°37' W 008°41'1412.7
2016-Feb-09 04:28N 36°33' W 008°24'1112.6
2016-Feb-09 03:34N 36°29' W 008°11'12512.0
2016-Feb-08 17:13N 35°58' W 005°41'6 9.5
2016-Feb-08 16:33N 35°59' W 005°33'1010.3
2016-Feb-08 15:33N 36°01' W 005°21'  
2016-Feb-05 10:33N 36°48' E 013°29'1111.3
2016-Feb-05 09:33N 36°45' E 013°42'1111.2
2016-Feb-05 08:33N 36°43' E 013°56'1211.6
2016-Feb-05 07:33N 36°41' E 014°10'1211.7
2016-Feb-05 06:33N 36°38' E 014°24'1111.0
2016-Feb-05 05:33N 36°36' E 014°38'42612.1
2016-Feb-03 18:14N 36°44' E 023°29'1012.7
2016-Feb-03 17:27N 36°53' E 023°35'1112.5
2016-Feb-03 16:32N 37°02' E 023°42'1512.9
2016-Feb-03 15:21N 37°15' E 023°53'4213.1
2016-Feb-03 12:10N 37°49' E 024°24'4712.7
2016-Feb-03 08:30N 38°28' E 024°55'1313.3
2016-Feb-03 07:33N 38°40' E 025°03'21111.7
2016-Feb-02 13:33N 40°53' E 028°35'1313.2
2016-Feb-02 12:33N 40°55' E 028°52'3 0.8
2016-Feb-02 09:20N 40°57' E 028°55'0 0.0
2016-Feb-02 01:13N 40°57' E 028°55'2 3.5
2016-Feb-02 00:33N 40°58' E 028°57'  
Track history (hours):
 
Tides and Currents Weather Stations Pressure Air Temp Water Temp Dewpoint Dewpoint Depression Visibility Wind Speed Wind Dir Waves Ship Positions

Kaszuby

Last reported at 2016-Feb-10 15:31 UTC. Time now 2016-Feb-13 23:39 UTC.
Position N 41°57' W 009°48'.

Length 190 m; draft 10.1 m.

Type: Cargo ship. MMSI: 311005600.

Date/timePositionNaut miles runAvg speedWind from/ knotsBaromVisibWave heightAir tempDewpointWater temp
2016-Feb-10 15:31N 41°57' W 009°48'10 9.9
2016-Feb-10 14:31N 41°48' W 009°47'10 9.9
2016-Feb-10 13:31N 41°38' W 009°48'10 9.3
2016-Feb-10 12:28N 41°28' W 009°49'10 9.8
2016-Feb-10 11:28N 41°18' W 009°49'11 9.0
2016-Feb-10 10:13N 41°07' W 009°49'8 9.8
2016-Feb-10 09:25N 40°59' W 009°49'9 9.9
2016-Feb-10 08:31N 40°50' W 009°49'10 9.8
2016-Feb-10 07:28N 40°40' W 009°50'1010.0
2016-Feb-10 06:28N 40°30' W 009°50'9 9.4
2016-Feb-10 05:31N 40°21' W 009°50'1010.3
2016-Feb-10 04:31N 40°11' W 009°50'10 9.4
2016-Feb-10 03:29N 40°01' W 009°50'1111.1
2016-Feb-10 02:31N 39°50' W 009°51'10 9.4
2016-Feb-10 01:28N 39°40' W 009°50'8 9.1
2016-Feb-10 00:32N 39°32' W 009°50'9 9.4
2016-Feb-09 23:33N 39°23' W 009°50'9 9.4
2016-Feb-09 22:33N 39°13' W 009°50'9 9.2
2016-Feb-09 21:34N 39°04' W 009°50'9 9.0
2016-Feb-09 20:34N 38°55' W 009°50'9 9.2
2016-Feb-09 19:33N 38°46' W 009°50'9 9.5
2016-Feb-09 18:33N 38°36' W 009°50'1010.2
2016-Feb-09 17:33N 38°26' W 009°47'1110.7
2016-Feb-09 16:33N 38°16' W 009°44'1111.0
2016-Feb-09 15:33N 38°05' W 009°41'1111.0
2016-Feb-09 14:33N 37°55' W 009°37'1211.9
2016-Feb-09 13:31N 37°43' W 009°33'1110.6
2016-Feb-09 12:28N 37°32' W 009°31'1010.3
2016-Feb-09 11:31N 37°22' W 009°28'1110.8
2016-Feb-09 10:31N 37°12' W 009°25'1010.1
2016-Feb-09 09:34N 37°02' W 009°21'1211.2
2016-Feb-09 08:28N 36°51' W 009°16'1010.4
2016-Feb-09 07:31N 36°43' W 009°08'1211.9
2016-Feb-09 06:31N 36°40' W 008°54'1111.6
2016-Feb-09 05:34N 36°37' W 008°41'1412.7
2016-Feb-09 04:28N 36°33' W 008°24'1112.6
2016-Feb-09 03:34N 36°29' W 008°11'12512.0
2016-Feb-08 17:13N 35°58' W 005°41'6 9.5
2016-Feb-08 16:33N 35°59' W 005°33'1010.3
2016-Feb-08 15:33N 36°01' W 005°21'  
2016-Feb-05 10:33N 36°48' E 013°29'1111.3
2016-Feb-05 09:33N 36°45' E 013°42'1111.2
2016-Feb-05 08:33N 36°43' E 013°56'1211.6
2016-Feb-05 07:33N 36°41' E 014°10'1211.7
2016-Feb-05 06:33N 36°38' E 014°24'1111.0
2016-Feb-05 05:33N 36°36' E 014°38'42612.1
2016-Feb-03 18:14N 36°44' E 023°29'1012.7
2016-Feb-03 17:27N 36°53' E 023°35'1112.5
2016-Feb-03 16:32N 37°02' E 023°42'1512.9
2016-Feb-03 15:21N 37°15' E 023°53'4213.1
2016-Feb-03 12:10N 37°49' E 024°24'4712.7
2016-Feb-03 08:30N 38°28' E 024°55'1313.3
2016-Feb-03 07:33N 38°40' E 025°03'21111.7
2016-Feb-02 13:33N 40°53' E 028°35'1313.2
2016-Feb-02 12:33N 40°55' E 028°52'3 0.8
2016-Feb-02 09:20N 40°57' E 028°55'0 0.0
2016-Feb-02 01:13N 40°57' E 028°55'2 3.5
2016-Feb-02 00:33N 40°58' E 028°57'  

Dump ship's entire track history